createdAt,value
2023-03-13T00:01:47.897Z,4.85
2023-03-13T00:04:17.327Z,4.92
2023-03-13T00:06:47.020Z,4.70
2023-03-13T00:09:17.996Z,5.00
2023-03-13T00:11:50.335Z,4.37
2023-03-13T00:14:20.243Z,4.25
2023-03-13T00:16:49.664Z,4.30
2023-03-13T00:19:19.092Z,5.03
2023-03-13T00:21:48.550Z,3.92
2023-03-13T00:24:17.974Z,4.53
2023-03-13T00:26:47.402Z,4.90
2023-03-13T00:29:16.936Z,3.80
2023-03-13T00:31:47.404Z,4.22
2023-03-13T00:34:18.543Z,4.30
2023-03-13T00:36:47.987Z,3.98
2023-03-13T00:39:17.419Z,4.17
2023-03-13T00:41:46.852Z,3.75
2023-03-13T00:44:16.416Z,3.85
2023-03-13T00:46:45.842Z,4.53
2023-03-13T00:49:17.122Z,4.03
2023-03-13T00:51:47.532Z,4.10
2023-03-13T00:54:17.062Z,4.28
2023-03-13T00:56:46.693Z,4.70
2023-03-13T00:59:16.606Z,4.33
2023-03-13T01:01:48.409Z,4.50
2023-03-13T01:04:17.882Z,3.65
2023-03-13T01:06:47.384Z,4.08
2023-03-13T01:09:18.083Z,4.28
2023-03-13T01:11:47.969Z,3.92
2023-03-13T01:14:20.568Z,3.58
2023-03-13T01:16:50.065Z,3.27
2023-03-13T01:19:19.485Z,3.62
2023-03-13T01:21:49.218Z,3.98
2023-03-13T01:24:20.292Z,3.47
2023-03-13T01:26:50.505Z,3.30
2023-03-13T01:29:20.297Z,3.70
2023-03-13T01:31:50.378Z,4.25
2023-03-13T01:34:19.790Z,3.60
2023-03-13T01:36:51.445Z,3.67
2023-03-13T01:39:20.868Z,4.20
2023-03-13T01:41:50.372Z,3.83
2023-03-13T01:44:28.378Z,3.67
2023-03-13T01:46:58.480Z,3.27
2023-03-13T01:49:34.096Z,3.40
2023-03-13T01:52:32.345Z,3.27
2023-03-13T01:55:12.549Z,3.60
2023-03-13T01:57:46.989Z,3.52
2023-03-13T02:00:20.665Z,3.50
2023-03-13T02:02:53.286Z,3.58
2023-03-13T02:05:26.071Z,3.50
2023-03-13T02:08:04.569Z,3.35
2023-03-13T02:10:37.190Z,3.47
2023-03-13T02:13:06.682Z,3.75
2023-03-13T02:15:36.244Z,3.02
2023-03-13T02:18:06.872Z,3.97
2023-03-13T02:20:36.525Z,3.65
2023-03-13T02:23:20.446Z,4.10
2023-03-13T02:28:24.754Z,3.17
2023-03-13T02:30:58.680Z,3.83
2023-03-13T02:33:33.220Z,3.40
2023-03-13T02:36:04.248Z,2.98
2023-03-13T02:38:37.310Z,3.47
2023-03-13T02:41:08.049Z,3.37
2023-03-13T02:43:39.395Z,3.45
2023-03-13T02:46:14.773Z,3.35
2023-03-13T02:48:48.849Z,3.35
2023-03-13T02:51:21.356Z,3.65
2023-03-13T02:53:53.471Z,3.55
2023-03-13T02:56:25.960Z,3.40
2023-03-13T02:58:55.837Z,3.50
2023-03-13T03:01:27.042Z,3.27
2023-03-13T03:03:57.139Z,3.90
2023-03-13T03:06:26.671Z,3.30
2023-03-13T03:08:57.549Z,3.95
2023-03-13T03:11:27.663Z,3.40
2023-03-13T03:13:58.865Z,3.77
2023-03-13T03:16:29.637Z,3.80
2023-03-13T03:18:59.254Z,3.50
2023-03-13T03:21:28.962Z,3.98
2023-03-13T03:25:40.028Z,4.00
2023-03-13T03:28:09.967Z,3.47
2023-03-13T03:30:40.301Z,3.70
2023-03-13T03:33:09.822Z,3.83
2023-03-13T03:35:41.090Z,3.67
2023-03-13T03:38:12.162Z,3.65
2023-03-13T03:40:41.725Z,3.92
2023-03-13T03:43:11.260Z,3.90
2023-03-13T03:45:40.856Z,3.92
2023-03-13T03:48:11.568Z,3.63
2023-03-13T03:50:41.304Z,3.58
2023-03-13T03:53:10.978Z,3.70
2023-03-13T03:55:40.484Z,3.40
2023-03-13T03:58:10.211Z,4.08
2023-03-13T04:00:50.185Z,3.92
2023-03-13T04:03:20.347Z,4.15
2023-03-13T04:05:50.436Z,3.65
2023-03-13T04:08:20.720Z,4.00
2023-03-13T04:10:50.372Z,3.90
2023-03-13T04:13:22.193Z,3.83
2023-03-13T04:15:52.089Z,4.97
2023-03-13T04:18:22.004Z,4.45
2023-03-13T04:20:55.997Z,4.67
2023-03-13T04:23:26.150Z,4.12
2023-03-13T04:25:55.640Z,4.22
2023-03-13T04:28:26.047Z,4.20
2023-03-13T04:30:57.408Z,4.62
2023-03-13T04:33:44.274Z,4.80
2023-03-13T04:36:20.790Z,4.85
2023-03-13T04:38:55.045Z,5.44
2023-03-13T04:41:26.166Z,5.62
2023-03-13T04:44:13.578Z,5.22
2023-03-13T04:46:59.668Z,4.53
2023-03-13T04:49:35.854Z,4.40
2023-03-13T04:52:09.814Z,4.55
2023-03-13T04:54:51.328Z,4.10
2023-03-13T04:57:22.467Z,4.97
2023-03-13T05:00:05.088Z,4.47
2023-03-13T05:02:48.391Z,5.20
2023-03-13T05:05:29.587Z,4.55
2023-03-13T05:08:19.907Z,4.35
2023-03-13T05:10:54.262Z,4.75
2023-03-13T05:13:28.396Z,4.47
2023-03-13T05:16:03.759Z,4.40
2023-03-13T05:18:40.962Z,4.75
2023-03-13T05:21:13.113Z,5.20
2023-03-13T05:24:00.399Z,5.67
2023-03-13T05:26:37.739Z,5.50
2023-03-13T05:29:23.999Z,5.08
2023-03-13T05:32:04.217Z,5.25
2023-03-13T05:34:41.277Z,5.00
2023-03-13T05:37:12.663Z,4.78
2023-03-13T05:39:56.159Z,5.10
2023-03-13T05:42:29.847Z,5.40
2023-03-13T05:45:20.094Z,4.57
2023-03-13T05:48:08.702Z,5.47
2023-03-13T05:50:56.309Z,5.20
2023-03-13T05:53:30.454Z,5.90
2023-03-13T05:56:01.572Z,5.90
2023-03-13T05:58:45.224Z,5.50
2023-03-13T06:01:19.436Z,5.62
2023-03-13T06:03:54.923Z,5.35
2023-03-13T06:06:25.705Z,5.63
2023-03-13T06:08:56.909Z,5.58
2023-03-13T06:11:28.572Z,5.42
2023-03-13T06:13:59.165Z,5.53
2023-03-13T06:16:30.421Z,6.92
2023-03-13T06:19:02.518Z,5.20
2023-03-13T06:21:32.117Z,5.90
2023-03-13T06:24:01.683Z,5.67
2023-03-13T06:26:31.358Z,5.47
2023-03-13T06:29:00.784Z,4.85
2023-03-13T06:31:30.251Z,5.20
2023-03-13T06:34:00.520Z,5.22
2023-03-13T06:36:30.105Z,5.10
2023-03-13T06:39:00.602Z,4.85
2023-03-13T06:41:30.110Z,5.03
2023-03-13T06:43:59.529Z,6.37
2023-03-13T06:46:29.635Z,5.72
2023-03-13T06:49:00.774Z,5.53
2023-03-13T06:51:30.668Z,5.25
2023-03-13T06:54:00.158Z,5.10
2023-03-13T06:56:29.594Z,4.58
2023-03-13T06:59:00.112Z,4.95
2023-03-13T07:01:29.973Z,5.10
2023-03-13T07:04:02.436Z,4.80
2023-03-13T07:06:32.089Z,4.70
2023-03-13T07:09:02.201Z,5.48
2023-03-13T07:11:33.042Z,6.97
2023-03-13T07:14:15.891Z,6.42
2023-03-13T07:16:34.390Z,6.53
2023-03-13T07:19:04.244Z,5.37
2023-03-13T07:21:33.683Z,5.58
2023-03-13T07:24:03.250Z,5.33
2023-03-13T07:26:33.879Z,5.03
2023-03-13T07:29:03.979Z,6.08
2023-03-13T07:31:34.795Z,6.08
2023-03-13T07:34:04.265Z,6.47
2023-03-13T07:36:35.482Z,5.80
2023-03-13T07:39:05.165Z,6.10
2023-03-13T07:41:34.757Z,5.67
2023-03-13T07:44:12.644Z,5.60
2023-03-13T07:46:42.162Z,5.95
2023-03-13T07:49:12.137Z,5.03
2023-03-13T07:51:44.194Z,5.80
2023-03-13T07:54:13.236Z,4.55
2023-03-13T07:56:42.695Z,4.58
2023-03-13T07:59:13.133Z,5.03
2023-03-13T08:01:42.708Z,6.42
2023-03-13T08:04:15.805Z,4.50
2023-03-13T08:06:45.253Z,4.50
2023-03-13T08:09:14.673Z,4.37
2023-03-13T08:11:48.508Z,3.42
2023-03-13T08:14:17.939Z,2.80
2023-03-13T08:16:47.546Z,3.25
2023-03-13T08:19:18.271Z,2.65
2023-03-13T08:21:47.705Z,2.53
2023-03-13T08:24:17.190Z,2.20
2023-03-13T08:26:47.047Z,2.50
2023-03-13T08:29:16.603Z,2.15
2023-03-13T08:31:52.672Z,2.30
2023-03-13T08:34:22.329Z,2.02
2023-03-13T08:36:53.518Z,3.17
2023-03-13T08:39:22.950Z,2.00
2023-03-13T08:41:53.660Z,2.00
2023-03-13T08:44:25.973Z,1.40
2023-03-13T08:46:55.496Z,1.32
2023-03-13T08:49:24.909Z,1.60
2023-03-13T08:51:54.546Z,1.62
2023-03-13T08:54:24.221Z,1.65
2023-03-13T08:56:53.649Z,1.80
2023-03-13T08:59:23.063Z,1.40
2023-03-13T09:01:53.493Z,1.55
2023-03-13T09:04:22.927Z,1.85
2023-03-13T09:06:52.431Z,1.80
2023-03-13T09:09:24.582Z,2.03
2023-03-13T09:11:53.868Z,2.00
2023-03-13T09:14:24.264Z,2.08
2023-03-13T09:16:54.337Z,2.02
2023-03-13T09:19:23.762Z,2.00
2023-03-13T09:21:53.189Z,2.00
2023-03-13T09:24:23.403Z,1.70
2023-03-13T09:27:01.030Z,1.50
2023-03-13T09:29:25.350Z,1.75
2023-03-13T09:31:55.366Z,1.85
2023-03-13T09:34:25.857Z,2.00
2023-03-13T09:36:55.359Z,1.92
2023-03-13T09:39:25.473Z,1.80
2023-03-13T09:42:00.795Z,1.90
2023-03-13T09:44:36.270Z,1.90
2023-03-13T09:47:08.845Z,2.15
2023-03-13T09:49:51.379Z,2.27
2023-03-13T09:52:33.462Z,2.43
2023-03-13T09:55:09.861Z,1.97
2023-03-13T09:57:54.470Z,1.72
2023-03-13T10:00:27.613Z,2.17
2023-03-13T10:03:05.613Z,2.95
2023-03-13T10:05:36.860Z,2.05
2023-03-13T10:08:21.702Z,2.72
2023-03-13T10:11:00.142Z,2.02
2023-03-13T10:13:50.243Z,1.95
2023-03-13T10:16:31.889Z,2.37
2023-03-13T10:19:04.794Z,2.10
2023-03-13T10:24:25.989Z,2.20
2023-03-13T10:26:57.700Z,2.05
2023-03-13T10:29:32.732Z,2.10
2023-03-13T10:32:05.904Z,2.24
2023-03-13T10:34:52.932Z,2.35
2023-03-13T10:37:28.257Z,1.82
2023-03-13T10:40:15.708Z,2.17
2023-03-13T10:42:47.396Z,2.47
2023-03-13T10:45:19.657Z,2.20
2023-03-13T10:50:22.408Z,2.27
2023-03-13T10:52:56.312Z,2.52
2023-03-13T10:55:27.829Z,2.47
2023-03-13T10:58:02.970Z,2.22
2023-03-13T11:00:35.921Z,2.52
2023-03-13T11:03:22.026Z,2.20
2023-03-13T11:06:01.123Z,2.33
2023-03-13T11:08:36.089Z,2.55
2023-03-13T11:11:08.713Z,2.20
2023-03-13T11:16:23.688Z,2.72
2023-03-13T11:19:14.327Z,1.90
2023-03-13T11:22:08.790Z,1.85
2023-03-13T11:24:53.160Z,1.87
2023-03-13T11:27:31.347Z,2.37
2023-03-13T11:30:04.973Z,2.17
2023-03-13T11:32:58.695Z,1.72
2023-03-13T11:35:37.081Z,1.67
2023-03-13T11:38:22.726Z,1.90
2023-03-13T11:41:11.873Z,1.85
2023-03-13T11:44:02.466Z,1.80
2023-03-13T11:46:50.021Z,1.90
2023-03-13T11:49:25.297Z,2.00
2023-03-13T11:52:27.016Z,1.95
2023-03-13T11:55:15.487Z,2.27
2023-03-13T11:57:59.285Z,2.10
2023-03-13T12:00:32.298Z,2.00
2023-03-13T12:03:19.797Z,2.17
2023-03-13T12:05:53.224Z,1.90
2023-03-13T12:08:39.543Z,2.05
2023-03-13T12:11:25.794Z,2.33
2023-03-13T12:14:04.382Z,2.08
2023-03-13T12:16:37.413Z,1.95
2023-03-13T12:19:09.888Z,2.00
2023-03-13T12:21:42.830Z,1.90
2023-03-13T12:24:28.535Z,2.27
2023-03-13T12:27:19.156Z,1.98
2023-03-13T12:30:17.605Z,1.90
2023-03-13T12:32:53.142Z,1.75
2023-03-13T12:35:33.041Z,2.20
2023-03-13T12:38:08.224Z,1.77
2023-03-13T12:40:56.331Z,2.15
2023-03-13T12:43:33.950Z,1.75
2023-03-13T12:46:36.655Z,2.10
2023-03-13T12:49:32.124Z,2.00
2023-03-13T12:52:33.974Z,2.25
2023-03-13T12:55:42.541Z,2.05
2023-03-13T12:58:30.778Z,1.65
2023-03-13T13:01:03.856Z,2.10
2023-03-13T13:03:42.291Z,2.15
2023-03-13T13:06:17.557Z,1.98
2023-03-13T13:09:04.362Z,2.05
2023-03-13T13:11:36.855Z,2.17
2023-03-13T13:14:21.458Z,2.55
2023-03-13T13:16:56.853Z,2.30
2023-03-13T13:19:30.170Z,2.45
2023-03-13T13:22:37.768Z,2.40
2023-03-13T13:25:13.826Z,2.40
2023-03-13T13:27:46.692Z,2.40
2023-03-13T13:32:51.639Z,2.47
2023-03-13T13:35:31.730Z,2.60
2023-03-13T13:38:22.531Z,2.98
2023-03-13T13:41:14.043Z,2.90
2023-03-13T13:43:45.705Z,2.80
2023-03-13T13:46:30.156Z,2.50
2023-03-13T13:49:18.940Z,2.62
2023-03-13T13:52:10.320Z,2.47
2023-03-13T13:54:48.541Z,2.67
2023-03-13T13:57:24.368Z,2.93
2023-03-13T14:00:16.636Z,2.98
2023-03-13T14:02:57.559Z,2.67
2023-03-13T14:05:30.429Z,2.90
2023-03-13T14:08:15.816Z,2.85
2023-03-13T14:10:51.128Z,3.10
2023-03-13T14:13:25.398Z,2.65
2023-03-13T14:15:55.305Z,3.20
2023-03-13T14:18:28.328Z,2.93
2023-03-13T14:21:08.189Z,3.10
2023-03-13T14:23:42.896Z,3.22
2023-03-13T14:26:20.748Z,3.27
2023-03-13T14:28:54.098Z,3.80
2023-03-13T14:31:32.553Z,2.98
2023-03-13T14:34:08.583Z,3.20
2023-03-13T14:36:57.071Z,3.27
2023-03-13T14:39:45.816Z,3.33
2023-03-13T14:42:17.671Z,3.00
2023-03-13T14:44:50.838Z,2.95
2023-03-13T14:47:32.649Z,3.00
2023-03-13T14:50:10.112Z,2.98
2023-03-13T14:52:42.803Z,3.60
2023-03-13T14:55:27.977Z,2.92
2023-03-13T14:58:22.143Z,3.15
2023-03-13T15:00:52.665Z,3.45
2023-03-13T15:03:26.633Z,3.17
2023-03-13T15:06:08.449Z,3.67
2023-03-13T15:08:40.536Z,3.30
2023-03-13T15:11:28.481Z,3.57
2023-03-13T15:13:59.445Z,3.40
2023-03-13T15:16:30.600Z,3.65
2023-03-13T15:19:00.390Z,3.22
2023-03-13T15:21:33.711Z,3.00
2023-03-13T15:24:05.942Z,3.47
2023-03-13T15:26:35.423Z,3.35
2023-03-13T15:29:05.034Z,3.45
2023-03-13T15:31:36.094Z,3.92
2023-03-13T15:34:07.184Z,4.53
2023-03-13T15:36:37.052Z,3.60
2023-03-13T15:39:09.530Z,4.00
2023-03-13T15:41:39.200Z,4.45
2023-03-13T15:44:08.630Z,4.15
2023-03-13T15:46:38.203Z,4.55
2023-03-13T15:49:09.434Z,4.03
2023-03-13T15:51:38.876Z,4.20
2023-03-13T15:54:08.293Z,3.72
2023-03-13T15:56:39.724Z,4.30
2023-03-13T15:59:12.745Z,3.93
2023-03-13T16:01:46.426Z,4.80
2023-03-13T16:04:15.889Z,4.47
2023-03-13T16:06:45.699Z,4.60
2023-03-13T16:09:16.855Z,4.10
2023-03-13T16:11:46.391Z,4.28
2023-03-13T16:14:15.797Z,4.45
2023-03-13T16:16:45.384Z,4.33
2023-03-13T16:19:14.785Z,3.98
2023-03-13T16:21:46.036Z,4.50
2023-03-13T16:24:17.700Z,4.22
2023-03-13T16:26:47.642Z,4.70
2023-03-13T16:29:18.094Z,4.70
2023-03-13T16:31:48.498Z,4.55
2023-03-13T16:34:18.885Z,4.85
2023-03-13T16:36:48.342Z,4.67
2023-03-13T16:39:18.844Z,4.60
2023-03-13T16:41:48.344Z,5.05
2023-03-13T16:44:18.459Z,5.60
2023-03-13T16:47:02.776Z,5.42
2023-03-13T16:49:19.929Z,5.55
2023-03-13T16:51:49.424Z,5.60
2023-03-13T16:54:19.974Z,5.35
2023-03-13T16:56:53.256Z,5.95
2023-03-13T16:59:24.806Z,6.20
2023-03-13T17:04:23.775Z,6.25
2023-03-13T17:06:54.256Z,5.70
2023-03-13T17:09:23.694Z,6.53
2023-03-13T17:11:53.322Z,6.37
2023-03-13T17:14:22.746Z,6.25
2023-03-13T17:16:52.200Z,5.35
2023-03-13T17:19:22.111Z,5.85
2023-03-13T17:21:51.551Z,5.63
2023-03-13T17:24:20.959Z,5.90
2023-03-13T17:26:50.891Z,3.25
2023-03-13T17:29:20.463Z,5.45
2023-03-13T17:31:50.271Z,6.12
2023-03-13T17:34:20.752Z,6.05
2023-03-13T17:36:50.270Z,6.40
2023-03-13T17:39:21.445Z,6.42
2023-03-13T17:41:51.195Z,6.92
2023-03-13T17:44:20.613Z,6.05
2023-03-13T17:46:52.021Z,6.40
2023-03-13T17:49:21.573Z,6.67
2023-03-13T17:51:51.411Z,7.08
2023-03-13T17:54:22.720Z,6.62
2023-03-13T17:56:52.841Z,7.17
2023-03-13T17:59:22.289Z,6.90
2023-03-13T18:01:51.773Z,6.08
2023-03-13T18:04:21.715Z,5.57
2023-03-13T18:06:51.290Z,4.87
2023-03-13T18:09:23.341Z,4.65
2023-03-13T18:11:53.021Z,3.53
2023-03-13T18:14:24.028Z,4.00
2023-03-13T18:16:55.324Z,3.77
2023-03-13T18:19:26.678Z,3.70
2023-03-13T18:21:57.011Z,3.62
2023-03-13T18:24:26.429Z,3.60
2023-03-13T18:26:55.861Z,3.40
2023-03-13T18:29:27.004Z,4.45
2023-03-13T18:32:00.570Z,3.52
2023-03-13T18:34:31.860Z,14.07
2023-03-13T18:37:03.423Z,8.30
2023-03-13T18:39:33.940Z,11.30
2023-03-13T18:42:03.458Z,7.40
2023-03-13T18:44:32.986Z,9.25
2023-03-13T18:47:03.635Z,7.22
2023-03-13T18:49:33.155Z,4.78
2023-03-13T18:52:02.572Z,3.58
2023-03-13T18:54:32.095Z,3.33
2023-03-13T18:57:01.565Z,3.15
2023-03-13T18:59:31.009Z,2.47
2023-03-13T19:02:00.806Z,1.80
2023-03-13T19:04:30.323Z,2.20
2023-03-13T19:06:59.919Z,2.27
2023-03-13T19:09:43.160Z,1.92
2023-03-13T19:12:00.678Z,1.92
2023-03-13T19:14:30.163Z,2.08
2023-03-13T19:16:59.585Z,2.70
2023-03-13T19:19:29.023Z,1.98
2023-03-13T19:21:58.748Z,1.67
2023-03-13T19:24:28.926Z,2.05
2023-03-13T19:27:01.538Z,1.67
2023-03-13T19:29:32.694Z,1.55
2023-03-13T19:32:03.976Z,2.17
2023-03-13T19:34:33.908Z,1.77
2023-03-13T19:37:03.933Z,1.87
2023-03-13T19:39:34.628Z,2.27
2023-03-13T19:42:06.452Z,2.72
2023-03-13T19:44:37.081Z,2.57
2023-03-13T19:47:06.763Z,2.70
2023-03-13T19:49:36.273Z,2.40
2023-03-13T19:52:05.751Z,2.20
2023-03-13T19:54:36.141Z,3.15
2023-03-13T19:57:05.547Z,2.45
2023-03-13T19:59:36.769Z,1.40
2023-03-13T20:02:09.994Z,2.10
2023-03-13T20:04:39.696Z,1.85
2023-03-13T20:07:10.819Z,2.07
2023-03-13T20:09:40.390Z,1.85
2023-03-13T20:12:09.827Z,1.70
2023-03-13T20:14:39.457Z,1.72
2023-03-13T20:17:08.876Z,1.85
2023-03-13T20:19:38.323Z,2.08
2023-03-13T20:22:09.449Z,1.60
2023-03-13T20:24:38.977Z,1.80
2023-03-13T20:27:08.382Z,1.47
2023-03-13T20:29:38.236Z,1.45
2023-03-13T20:32:08.010Z,2.45
2023-03-13T20:34:37.550Z,1.87
2023-03-13T20:37:08.035Z,2.43
2023-03-13T20:39:39.928Z,1.72
2023-03-13T20:42:10.952Z,1.80
2023-03-13T20:44:41.105Z,1.87
2023-03-13T20:47:10.595Z,2.25
2023-03-13T20:49:41.946Z,2.17
2023-03-13T20:52:11.367Z,1.90
2023-03-13T20:54:40.800Z,1.98
2023-03-13T20:57:12.008Z,2.30
2023-03-13T20:59:41.494Z,1.92
2023-03-13T21:02:11.402Z,2.08
2023-03-13T21:04:41.186Z,2.25
2023-03-13T21:07:11.144Z,2.25
2023-03-13T21:09:42.055Z,1.92
2023-03-13T21:12:12.158Z,2.20
2023-03-13T21:14:41.587Z,2.70
2023-03-13T21:17:13.059Z,2.47
2023-03-13T21:19:44.125Z,1.95
2023-03-13T21:22:14.143Z,1.95
2023-03-13T21:24:43.638Z,2.58
2023-03-13T21:27:14.733Z,2.20
2023-03-13T21:29:46.238Z,2.08
2023-03-13T21:32:16.778Z,2.52
2023-03-13T21:34:46.667Z,2.20
2023-03-13T21:37:18.553Z,1.98
2023-03-13T21:39:52.744Z,2.12
2023-03-13T21:42:22.817Z,2.25
2023-03-13T21:44:53.893Z,2.20
2023-03-13T21:47:26.378Z,2.30
2023-03-13T21:49:56.615Z,2.98
2023-03-13T21:52:26.152Z,2.90
2023-03-13T21:54:55.665Z,2.47
2023-03-13T21:57:25.102Z,2.35
2023-03-13T21:59:54.529Z,1.82
2023-03-13T22:02:24.307Z,2.10
2023-03-13T22:04:53.717Z,2.58
2023-03-13T22:07:23.724Z,2.43
2023-03-13T22:09:53.572Z,1.90
2023-03-13T22:12:24.631Z,2.20
2023-03-13T22:14:56.702Z,2.62
2023-03-13T22:17:25.852Z,2.15
2023-03-13T22:19:55.279Z,2.20
2023-03-13T22:22:24.848Z,1.70
2023-03-13T22:24:55.468Z,2.47
2023-03-13T22:27:26.265Z,2.22
2023-03-13T22:29:57.096Z,1.80
2023-03-13T22:32:26.836Z,1.75
2023-03-13T22:34:56.279Z,2.08
2023-03-13T22:37:27.205Z,2.50
2023-03-13T22:39:57.997Z,2.27
2023-03-13T22:42:28.204Z,3.08
2023-03-13T22:44:57.696Z,2.58
2023-03-13T22:47:27.691Z,2.55
2023-03-13T22:49:57.177Z,2.77
2023-03-13T22:52:28.310Z,2.00
2023-03-13T22:54:59.030Z,2.90
2023-03-13T22:57:29.292Z,2.35
2023-03-13T23:00:00.393Z,2.62
2023-03-13T23:02:30.624Z,1.98
2023-03-13T23:05:01.525Z,2.08
2023-03-13T23:07:32.798Z,2.40
2023-03-13T23:10:02.321Z,2.58
2023-03-13T23:12:31.791Z,2.83
2023-03-13T23:15:02.367Z,2.83
2023-03-13T23:17:33.761Z,2.20
2023-03-13T23:20:12.127Z,2.10
2023-03-13T23:22:45.244Z,1.92
2023-03-13T23:27:44.438Z,2.05
2023-03-13T23:30:16.619Z,2.15
2023-03-13T23:32:48.566Z,2.17
2023-03-13T23:35:18.411Z,1.98
2023-03-13T23:37:53.484Z,2.20
2023-03-13T23:40:24.541Z,1.98
2023-03-13T23:42:54.473Z,2.47
2023-03-13T23:45:24.016Z,1.75
2023-03-13T23:47:54.387Z,2.08
2023-03-13T23:50:24.868Z,2.08
2023-03-13T23:52:56.823Z,2.30
2023-03-13T23:55:26.403Z,2.15
2023-03-13T23:57:55.869Z,2.47
